sensor_id;sensor_type;location;lat;lon;timestamp;temperature;humidity
56256;DHT22;57229;51.432;-2.598;2022-11-27T00:02:48;14.40;99.90
56256;DHT22;57229;51.432;-2.598;2022-11-27T00:05:13;14.40;99.90
56256;DHT22;57229;51.432;-2.598;2022-11-27T00:07:39;14.40;99.90
56256;DHT22;57229;51.432;-2.598;2022-11-27T00:10:20;14.40;99.90
56256;DHT22;57229;51.432;-2.598;2022-11-27T00:16:41;14.40;99.90
56256;DHT22;57229;51.432;-2.598;2022-11-27T00:20:09;14.40;99.90
56256;DHT22;57229;51.432;-2.598;2022-11-27T00:29:26;14.40;99.90
56256;DHT22;57229;51.432;-2.598;2022-11-27T00:31:54;14.40;99.90
56256;DHT22;57229;51.432;-2.598;2022-11-27T00:34:21;14.40;99.90
56256;DHT22;57229;51.432;-2.598;2022-11-27T00:36:47;14.40;99.90
56256;DHT22;57229;51.432;-2.598;2022-11-27T00:39:12;14.40;99.90
56256;DHT22;57229;51.432;-2.598;2022-11-27T00:41:38;14.40;99.90
56256;DHT22;57229;51.432;-2.598;2022-11-27T00:44:04;14.40;99.90
56256;DHT22;57229;51.432;-2.598;2022-11-27T00:46:32;14.40;99.90
56256;DHT22;57229;51.432;-2.598;2022-11-27T00:52:19;14.40;99.90
56256;DHT22;57229;51.432;-2.598;2022-11-27T00:54:45;14.40;99.90
56256;DHT22;57229;51.432;-2.598;2022-11-27T00:57:11;14.40;99.90
56256;DHT22;57229;51.432;-2.598;2022-11-27T00:59:37;14.40;99.90
56256;DHT22;57229;51.432;-2.598;2022-11-27T01:12:22;14.40;99.90
56256;DHT22;57229;51.432;-2.598;2022-11-27T01:15:09;14.40;99.90
56256;DHT22;57229;51.432;-2.598;2022-11-27T01:17:35;14.40;99.90
56256;DHT22;57229;51.432;-2.598;2022-11-27T01:20:21;14.40;99.90
56256;DHT22;57229;51.432;-2.598;2022-11-27T01:23:08;14.40;99.90
56256;DHT22;57229;51.432;-2.598;2022-11-27T01:25:37;14.40;99.90
56256;DHT22;57229;51.432;-2.598;2022-11-27T01:28:03;14.40;99.90
56256;DHT22;57229;51.432;-2.598;2022-11-27T01:31:02;14.40;99.90
56256;DHT22;57229;51.432;-2.598;2022-11-27T01:33:40;14.40;99.90
56256;DHT22;57229;51.432;-2.598;2022-11-27T01:36:07;14.40;99.90
56256;DHT22;57229;51.432;-2.598;2022-11-27T01:38:34;14.40;99.90
56256;DHT22;57229;51.432;-2.598;2022-11-27T01:41:22;14.40;99.90
56256;DHT22;57229;51.432;-2.598;2022-11-27T01:44:43;14.40;99.90
56256;DHT22;57229;51.432;-2.598;2022-11-27T01:46:54;14.40;99.90
56256;DHT22;57229;51.432;-2.598;2022-11-27T01:49:43;14.40;99.90
56256;DHT22;57229;51.432;-2.598;2022-11-27T01:52:26;14.40;99.90
56256;DHT22;57229;51.432;-2.598;2022-11-27T01:54:57;14.40;99.90
56256;DHT22;57229;51.432;-2.598;2022-11-27T01:57:28;14.40;99.90
56256;DHT22;57229;51.432;-2.598;2022-11-27T01:59:55;14.40;99.90
56256;DHT22;57229;51.432;-2.598;2022-11-27T02:02:22;14.40;99.90
56256;DHT22;57229;51.432;-2.598;2022-11-27T02:04:48;14.40;99.90
56256;DHT22;57229;51.432;-2.598;2022-11-27T02:07:14;14.40;99.90
56256;DHT22;57229;51.432;-2.598;2022-11-27T02:09:40;14.40;99.90
56256;DHT22;57229;51.432;-2.598;2022-11-27T02:12:32;14.40;99.90
56256;DHT22;57229;51.432;-2.598;2022-11-27T02:15:29;14.40;99.90
56256;DHT22;57229;51.432;-2.598;2022-11-27T02:18:11;14.40;99.90
56256;DHT22;57229;51.432;-2.598;2022-11-27T02:21:12;14.40;99.90
56256;DHT22;57229;51.432;-2.598;2022-11-27T02:29:22;14.30;99.90
56256;DHT22;57229;51.432;-2.598;2022-11-27T02:32:10;14.40;99.90
56256;DHT22;57229;51.432;-2.598;2022-11-27T02:42:54;14.50;99.90
56256;DHT22;57229;51.432;-2.598;2022-11-27T02:45:26;14.50;99.90
56256;DHT22;57229;51.432;-2.598;2022-11-27T02:47:54;14.50;99.90
56256;DHT22;57229;51.432;-2.598;2022-11-27T02:50:23;14.60;99.90
56256;DHT22;57229;51.432;-2.598;2022-11-27T02:52:52;14.50;99.90
56256;DHT22;57229;51.432;-2.598;2022-11-27T02:55:22;14.60;99.90
56256;DHT22;57229;51.432;-2.598;2022-11-27T02:57:52;14.60;99.90
56256;DHT22;57229;51.432;-2.598;2022-11-27T03:00:22;14.60;99.90
56256;DHT22;57229;51.432;-2.598;2022-11-27T03:02:58;14.60;99.90
56256;DHT22;57229;51.432;-2.598;2022-11-27T03:05:29;14.60;99.90
56256;DHT22;57229;51.432;-2.598;2022-11-27T03:08:28;14.60;99.90
56256;DHT22;57229;51.432;-2.598;2022-11-27T03:11:07;14.60;99.90
56256;DHT22;57229;51.432;-2.598;2022-11-27T03:13:36;14.60;99.90
56256;DHT22;57229;51.432;-2.598;2022-11-27T03:16:08;14.60;99.90
56256;DHT22;57229;51.432;-2.598;2022-11-27T03:19:04;14.60;99.90
56256;DHT22;57229;51.432;-2.598;2022-11-27T03:21:45;14.60;99.90
56256;DHT22;57229;51.432;-2.598;2022-11-27T03:24:12;14.60;99.90
56256;DHT22;57229;51.432;-2.598;2022-11-27T03:26:39;14.60;99.90
56256;DHT22;57229;51.432;-2.598;2022-11-27T03:29:08;14.60;99.90
56256;DHT22;57229;51.432;-2.598;2022-11-27T03:31:36;14.60;99.90
56256;DHT22;57229;51.432;-2.598;2022-11-27T03:34:03;14.60;99.90
56256;DHT22;57229;51.432;-2.598;2022-11-27T03:36:29;14.60;99.90
56256;DHT22;57229;51.432;-2.598;2022-11-27T03:38:54;14.60;99.90
56256;DHT22;57229;51.432;-2.598;2022-11-27T03:44:22;14.60;99.90
56256;DHT22;57229;51.432;-2.598;2022-11-27T03:50:13;14.60;99.90
56256;DHT22;57229;51.432;-2.598;2022-11-27T04:00:55;14.60;99.90
56256;DHT22;57229;51.432;-2.598;2022-11-27T04:03:26;14.60;99.90
56256;DHT22;57229;51.432;-2.598;2022-11-27T04:05:52;14.60;99.90
56256;DHT22;57229;51.432;-2.598;2022-11-27T04:08:19;14.60;99.90
56256;DHT22;57229;51.432;-2.598;2022-11-27T04:10:44;14.60;99.90
56256;DHT22;57229;51.432;-2.598;2022-11-27T04:13:10;14.60;99.90
56256;DHT22;57229;51.432;-2.598;2022-11-27T04:15:36;14.60;99.90
56256;DHT22;57229;51.432;-2.598;2022-11-27T04:18:02;14.60;99.90
56256;DHT22;57229;51.432;-2.598;2022-11-27T04:20:28;14.60;99.90
56256;DHT22;57229;51.432;-2.598;2022-11-27T04:22:54;14.60;99.90
56256;DHT22;57229;51.432;-2.598;2022-11-27T04:25:21;14.60;99.90
56256;DHT22;57229;51.432;-2.598;2022-11-27T04:27:47;14.60;99.90
56256;DHT22;57229;51.432;-2.598;2022-11-27T04:30:14;14.60;99.90
56256;DHT22;57229;51.432;-2.598;2022-11-27T04:32:39;14.60;99.90
56256;DHT22;57229;51.432;-2.598;2022-11-27T04:35:05;14.60;99.90
56256;DHT22;57229;51.432;-2.598;2022-11-27T04:37:34;14.60;99.90
56256;DHT22;57229;51.432;-2.598;2022-11-27T04:40:00;14.60;99.90
56256;DHT22;57229;51.432;-2.598;2022-11-27T04:42:26;14.60;99.90
56256;DHT22;57229;51.432;-2.598;2022-11-27T04:44:52;14.60;99.90
56256;DHT22;57229;51.432;-2.598;2022-11-27T04:47:17;14.60;99.90
56256;DHT22;57229;51.432;-2.598;2022-11-27T04:49:43;14.60;99.90
56256;DHT22;57229;51.432;-2.598;2022-11-27T04:52:09;14.60;99.90
56256;DHT22;57229;51.432;-2.598;2022-11-27T04:54:37;14.60;99.90
56256;DHT22;57229;51.432;-2.598;2022-11-27T04:57:03;14.60;99.90
56256;DHT22;57229;51.432;-2.598;2022-11-27T04:59:32;14.60;99.90
56256;DHT22;57229;51.432;-2.598;2022-11-27T05:01:58;14.60;99.90
56256;DHT22;57229;51.432;-2.598;2022-11-27T05:04:23;14.60;99.90
56256;DHT22;57229;51.432;-2.598;2022-11-27T05:06:49;14.60;99.90
56256;DHT22;57229;51.432;-2.598;2022-11-27T05:09:18;14.60;99.90
56256;DHT22;57229;51.432;-2.598;2022-11-27T05:11:48;14.60;99.90
56256;DHT22;57229;51.432;-2.598;2022-11-27T05:14:14;14.60;99.90
56256;DHT22;57229;51.432;-2.598;2022-11-27T05:16:48;14.60;99.90
56256;DHT22;57229;51.432;-2.598;2022-11-27T05:19:16;14.60;99.90
56256;DHT22;57229;51.432;-2.598;2022-11-27T05:21:43;14.60;99.90
56256;DHT22;57229;51.432;-2.598;2022-11-27T05:24:10;14.60;99.90
56256;DHT22;57229;51.432;-2.598;2022-11-27T05:26:36;14.60;99.90
56256;DHT22;57229;51.432;-2.598;2022-11-27T05:29:02;14.60;99.90
56256;DHT22;57229;51.432;-2.598;2022-11-27T05:31:28;14.60;99.90
56256;DHT22;57229;51.432;-2.598;2022-11-27T05:33:54;14.60;99.90
56256;DHT22;57229;51.432;-2.598;2022-11-27T05:36:20;14.60;99.90
56256;DHT22;57229;51.432;-2.598;2022-11-27T05:38:52;14.60;99.90
56256;DHT22;57229;51.432;-2.598;2022-11-27T05:41:18;14.60;99.90
56256;DHT22;57229;51.432;-2.598;2022-11-27T05:46:21;14.60;99.90
56256;DHT22;57229;51.432;-2.598;2022-11-27T05:48:47;14.60;99.90
56256;DHT22;57229;51.432;-2.598;2022-11-27T05:51:13;14.60;99.90
56256;DHT22;57229;51.432;-2.598;2022-11-27T05:53:40;14.60;99.90
56256;DHT22;57229;51.432;-2.598;2022-11-27T05:56:11;14.60;99.90
56256;DHT22;57229;51.432;-2.598;2022-11-27T05:58:38;14.60;99.90
56256;DHT22;57229;51.432;-2.598;2022-11-27T06:01:14;14.60;99.90
56256;DHT22;57229;51.432;-2.598;2022-11-27T06:03:42;14.50;99.90
56256;DHT22;57229;51.432;-2.598;2022-11-27T06:06:19;14.50;99.90
56256;DHT22;57229;51.432;-2.598;2022-11-27T06:08:45;14.50;99.90
56256;DHT22;57229;51.432;-2.598;2022-11-27T06:11:14;14.50;99.90
56256;DHT22;57229;51.432;-2.598;2022-11-27T06:13:40;14.50;99.90
56256;DHT22;57229;51.432;-2.598;2022-11-27T06:16:11;14.50;99.90
56256;DHT22;57229;51.432;-2.598;2022-11-27T06:18:37;14.50;99.90
56256;DHT22;57229;51.432;-2.598;2022-11-27T06:21:08;14.50;99.90
56256;DHT22;57229;51.432;-2.598;2022-11-27T06:23:34;14.50;99.90
56256;DHT22;57229;51.432;-2.598;2022-11-27T06:26:10;14.50;99.90
56256;DHT22;57229;51.432;-2.598;2022-11-27T06:28:36;14.50;99.90
56256;DHT22;57229;51.432;-2.598;2022-11-27T06:31:10;14.50;99.90
56256;DHT22;57229;51.432;-2.598;2022-11-27T06:33:37;14.50;99.90
56256;DHT22;57229;51.432;-2.598;2022-11-27T06:36:04;14.50;99.90
56256;DHT22;57229;51.432;-2.598;2022-11-27T06:38:35;14.50;99.90
56256;DHT22;57229;51.432;-2.598;2022-11-27T06:43:58;14.50;99.90
56256;DHT22;57229;51.432;-2.598;2022-11-27T06:46:25;14.50;99.90
56256;DHT22;57229;51.432;-2.598;2022-11-27T06:48:56;14.50;99.90
56256;DHT22;57229;51.432;-2.598;2022-11-27T06:51:28;14.50;99.90
56256;DHT22;57229;51.432;-2.598;2022-11-27T06:53:54;14.50;99.90
56256;DHT22;57229;51.432;-2.598;2022-11-27T06:56:23;14.50;99.90
56256;DHT22;57229;51.432;-2.598;2022-11-27T06:58:53;14.50;99.90
56256;DHT22;57229;51.432;-2.598;2022-11-27T07:01:21;14.50;99.90
56256;DHT22;57229;51.432;-2.598;2022-11-27T07:03:51;14.50;99.90
56256;DHT22;57229;51.432;-2.598;2022-11-27T07:06:20;14.40;99.90
56256;DHT22;57229;51.432;-2.598;2022-11-27T07:08:46;14.40;99.90
56256;DHT22;57229;51.432;-2.598;2022-11-27T07:13:39;14.50;99.90
56256;DHT22;57229;51.432;-2.598;2022-11-27T07:16:07;14.40;99.90
56256;DHT22;57229;51.432;-2.598;2022-11-27T07:18:35;14.40;99.90
56256;DHT22;57229;51.432;-2.598;2022-11-27T07:21:02;14.50;99.90
56256;DHT22;57229;51.432;-2.598;2022-11-27T07:23:29;14.50;99.90
56256;DHT22;57229;51.432;-2.598;2022-11-27T07:25:54;14.50;99.90
56256;DHT22;57229;51.432;-2.598;2022-11-27T07:28:20;14.50;99.90
56256;DHT22;57229;51.432;-2.598;2022-11-27T07:30:54;14.50;99.90
56256;DHT22;57229;51.432;-2.598;2022-11-27T07:33:20;14.50;99.90
56256;DHT22;57229;51.432;-2.598;2022-11-27T07:35:46;14.50;99.90
56256;DHT22;57229;51.432;-2.598;2022-11-27T07:38:15;14.50;99.90
56256;DHT22;57229;51.432;-2.598;2022-11-27T07:40:41;14.50;99.90
56256;DHT22;57229;51.432;-2.598;2022-11-27T07:43:06;14.50;99.90
56256;DHT22;57229;51.432;-2.598;2022-11-27T07:45:32;14.50;99.90
56256;DHT22;57229;51.432;-2.598;2022-11-27T07:47:58;14.50;99.90
56256;DHT22;57229;51.432;-2.598;2022-11-27T07:50:23;14.50;99.90
56256;DHT22;57229;51.432;-2.598;2022-11-27T07:52:49;14.50;99.90
56256;DHT22;57229;51.432;-2.598;2022-11-27T07:55:15;14.40;99.90
56256;DHT22;57229;51.432;-2.598;2022-11-27T07:57:41;14.40;99.90
56256;DHT22;57229;51.432;-2.598;2022-11-27T08:00:08;14.40;99.90
56256;DHT22;57229;51.432;-2.598;2022-11-27T08:02:34;14.40;99.90
56256;DHT22;57229;51.432;-2.598;2022-11-27T08:04:59;14.40;99.90
56256;DHT22;57229;51.432;-2.598;2022-11-27T08:07:27;14.50;99.90
56256;DHT22;57229;51.432;-2.598;2022-11-27T08:09:53;14.40;99.90
56256;DHT22;57229;51.432;-2.598;2022-11-27T08:12:18;14.40;99.90
56256;DHT22;57229;51.432;-2.598;2022-11-27T08:14:44;14.40;99.90
56256;DHT22;57229;51.432;-2.598;2022-11-27T08:17:11;14.50;99.90
56256;DHT22;57229;51.432;-2.598;2022-11-27T08:19:37;14.50;99.90
56256;DHT22;57229;51.432;-2.598;2022-11-27T08:22:03;14.40;99.90
56256;DHT22;57229;51.432;-2.598;2022-11-27T08:24:34;14.40;99.90
56256;DHT22;57229;51.432;-2.598;2022-11-27T08:27:04;14.40;99.90
56256;DHT22;57229;51.432;-2.598;2022-11-27T08:29:29;14.40;99.90
56256;DHT22;57229;51.432;-2.598;2022-11-27T08:31:55;14.40;99.90
56256;DHT22;57229;51.432;-2.598;2022-11-27T08:34:21;14.40;99.90
56256;DHT22;57229;51.432;-2.598;2022-11-27T08:36:46;14.40;99.90
56256;DHT22;57229;51.432;-2.598;2022-11-27T08:39:13;14.40;99.90
56256;DHT22;57229;51.432;-2.598;2022-11-27T08:41:38;14.40;99.90
56256;DHT22;57229;51.432;-2.598;2022-11-27T08:44:04;14.50;99.90
56256;DHT22;57229;51.432;-2.598;2022-11-27T08:46:32;14.50;99.90
56256;DHT22;57229;51.432;-2.598;2022-11-27T08:48:58;14.50;99.90
56256;DHT22;57229;51.432;-2.598;2022-11-27T08:51:25;14.40;99.90
56256;DHT22;57229;51.432;-2.598;2022-11-27T08:53:51;14.40;99.90
56256;DHT22;57229;51.432;-2.598;2022-11-27T08:56:20;14.50;99.90
56256;DHT22;57229;51.432;-2.598;2022-11-27T08:58:46;14.50;99.90
56256;DHT22;57229;51.432;-2.598;2022-11-27T09:01:17;14.50;99.90
56256;DHT22;57229;51.432;-2.598;2022-11-27T09:03:44;14.50;99.90
56256;DHT22;57229;51.432;-2.598;2022-11-27T09:06:12;14.50;99.90
56256;DHT22;57229;51.432;-2.598;2022-11-27T09:08:40;14.50;99.90
56256;DHT22;57229;51.432;-2.598;2022-11-27T09:11:06;14.50;99.90
56256;DHT22;57229;51.432;-2.598;2022-11-27T09:13:33;14.40;99.90
56256;DHT22;57229;51.432;-2.598;2022-11-27T09:16:08;14.50;99.90
56256;DHT22;57229;51.432;-2.598;2022-11-27T09:18:35;14.50;99.90
56256;DHT22;57229;51.432;-2.598;2022-11-27T09:21:06;14.50;99.90
56256;DHT22;57229;51.432;-2.598;2022-11-27T09:23:32;14.50;99.90
56256;DHT22;57229;51.432;-2.598;2022-11-27T09:25:59;14.50;99.90
56256;DHT22;57229;51.432;-2.598;2022-11-27T09:28:25;14.50;99.90
56256;DHT22;57229;51.432;-2.598;2022-11-27T09:30:59;14.50;99.90
56256;DHT22;57229;51.432;-2.598;2022-11-27T09:33:27;14.60;99.90
56256;DHT22;57229;51.432;-2.598;2022-11-27T09:35:53;14.60;99.90
56256;DHT22;57229;51.432;-2.598;2022-11-27T09:38:19;14.60;99.90
56256;DHT22;57229;51.432;-2.598;2022-11-27T09:40:50;14.60;99.90
56256;DHT22;57229;51.432;-2.598;2022-11-27T09:43:17;14.60;99.90
56256;DHT22;57229;51.432;-2.598;2022-11-27T09:45:51;14.90;99.90
56256;DHT22;57229;51.432;-2.598;2022-11-27T09:48:36;14.60;99.90
56256;DHT22;57229;51.432;-2.598;2022-11-27T09:51:13;14.60;99.90
56256;DHT22;57229;51.432;-2.598;2022-11-27T09:56:13;14.70;99.90
56256;DHT22;57229;51.432;-2.598;2022-11-27T09:58:42;14.70;99.90
56256;DHT22;57229;51.432;-2.598;2022-11-27T10:01:20;14.70;99.90
56256;DHT22;57229;51.432;-2.598;2022-11-27T10:03:47;14.70;99.90
56256;DHT22;57229;51.432;-2.598;2022-11-27T10:12:33;14.80;99.90
56256;DHT22;57229;51.432;-2.598;2022-11-27T10:18:10;14.80;99.90
56256;DHT22;57229;51.432;-2.598;2022-11-27T10:20:43;14.80;99.90
56256;DHT22;57229;51.432;-2.598;2022-11-27T10:25:48;14.90;99.90
56256;DHT22;57229;51.432;-2.598;2022-11-27T10:28:40;14.90;99.90
56256;DHT22;57229;51.432;-2.598;2022-11-27T10:34:06;14.90;99.90
56256;DHT22;57229;51.432;-2.598;2022-11-27T10:36:45;14.90;99.90
56256;DHT22;57229;51.432;-2.598;2022-11-27T10:39:17;15.00;99.90
56256;DHT22;57229;51.432;-2.598;2022-11-27T10:41:55;15.00;99.90
56256;DHT22;57229;51.432;-2.598;2022-11-27T10:44:37;15.00;99.90
56256;DHT22;57229;51.432;-2.598;2022-11-27T10:47:07;15.10;99.90
56256;DHT22;57229;51.432;-2.598;2022-11-27T10:49:35;15.10;99.90
56256;DHT22;57229;51.432;-2.598;2022-11-27T10:52:03;15.10;99.90
56256;DHT22;57229;51.432;-2.598;2022-11-27T10:54:36;15.10;99.90
56256;DHT22;57229;51.432;-2.598;2022-11-27T10:57:52;15.10;99.90
56256;DHT22;57229;51.432;-2.598;2022-11-27T11:00:23;15.10;99.90
56256;DHT22;57229;51.432;-2.598;2022-11-27T11:02:59;15.10;99.90
56256;DHT22;57229;51.432;-2.598;2022-11-27T11:05:27;15.10;99.90
56256;DHT22;57229;51.432;-2.598;2022-11-27T11:08:01;15.10;99.90
56256;DHT22;57229;51.432;-2.598;2022-11-27T11:11:03;15.20;99.90
56256;DHT22;57229;51.432;-2.598;2022-11-27T11:13:23;15.20;99.90
56256;DHT22;57229;51.432;-2.598;2022-11-27T11:16:22;15.20;99.90
56256;DHT22;57229;51.432;-2.598;2022-11-27T11:18:50;15.30;99.90
56256;DHT22;57229;51.432;-2.598;2022-11-27T11:21:39;15.30;99.90
56256;DHT22;57229;51.432;-2.598;2022-11-27T11:24:13;15.30;99.90
56256;DHT22;57229;51.432;-2.598;2022-11-27T11:26:44;15.30;99.90
56256;DHT22;57229;51.432;-2.598;2022-11-27T11:31:55;15.30;99.90
56256;DHT22;57229;51.432;-2.598;2022-11-27T11:34:27;15.30;99.90
56256;DHT22;57229;51.432;-2.598;2022-11-27T11:37:06;15.30;99.90
56256;DHT22;57229;51.432;-2.598;2022-11-27T11:39:40;15.20;99.90
56256;DHT22;57229;51.432;-2.598;2022-11-27T11:42:20;15.20;99.90
56256;DHT22;57229;51.432;-2.598;2022-11-27T11:45:00;15.20;99.90
56256;DHT22;57229;51.432;-2.598;2022-11-27T11:47:27;15.20;99.90
56256;DHT22;57229;51.432;-2.598;2022-11-27T11:49:54;15.30;99.90
56256;DHT22;57229;51.432;-2.598;2022-11-27T11:52:51;15.30;99.90
56256;DHT22;57229;51.432;-2.598;2022-11-27T11:55:23;15.30;99.90
56256;DHT22;57229;51.432;-2.598;2022-11-27T12:00:49;15.30;99.90
56256;DHT22;57229;51.432;-2.598;2022-11-27T12:03:30;15.30;99.90
56256;DHT22;57229;51.432;-2.598;2022-11-27T12:06:12;15.30;99.90
56256;DHT22;57229;51.432;-2.598;2022-11-27T12:08:50;15.30;99.90
56256;DHT22;57229;51.432;-2.598;2022-11-27T12:11:42;15.30;99.90
56256;DHT22;57229;51.432;-2.598;2022-11-27T12:14:15;15.30;99.90
56256;DHT22;57229;51.432;-2.598;2022-11-27T12:16:54;15.30;99.90
56256;DHT22;57229;51.432;-2.598;2022-11-27T12:28:19;15.30;99.90
56256;DHT22;57229;51.432;-2.598;2022-11-27T12:50:00;15.30;99.90
56256;DHT22;57229;51.432;-2.598;2022-11-27T12:52:31;15.30;99.90
56256;DHT22;57229;51.432;-2.598;2022-11-27T12:55:13;15.40;99.90
56256;DHT22;57229;51.432;-2.598;2022-11-27T12:57:45;15.40;99.90
56256;DHT22;57229;51.432;-2.598;2022-11-27T13:00:19;15.40;99.90
56256;DHT22;57229;51.432;-2.598;2022-11-27T13:03:17;15.40;99.90
56256;DHT22;57229;51.432;-2.598;2022-11-27T13:05:54;15.40;99.90
56256;DHT22;57229;51.432;-2.598;2022-11-27T13:11:19;15.40;99.90
56256;DHT22;57229;51.432;-2.598;2022-11-27T13:13:53;15.40;99.90
56256;DHT22;57229;51.432;-2.598;2022-11-27T13:19:44;15.40;99.90
56256;DHT22;57229;51.432;-2.598;2022-11-27T13:22:15;15.40;99.90
56256;DHT22;57229;51.432;-2.598;2022-11-27T13:24:44;15.40;99.90
56256;DHT22;57229;51.432;-2.598;2022-11-27T13:27:14;15.40;99.90
56256;DHT22;57229;51.432;-2.598;2022-11-27T13:29:53;15.40;99.90
56256;DHT22;57229;51.432;-2.598;2022-11-27T13:32:25;15.40;99.90
56256;DHT22;57229;51.432;-2.598;2022-11-27T13:34:55;15.40;99.90
56256;DHT22;57229;51.432;-2.598;2022-11-27T13:42:33;15.50;99.90
56256;DHT22;57229;51.432;-2.598;2022-11-27T13:45:07;15.50;99.90
56256;DHT22;57229;51.432;-2.598;2022-11-27T13:47:39;15.40;99.90
56256;DHT22;57229;51.432;-2.598;2022-11-27T13:50:12;15.40;99.90
56256;DHT22;57229;51.432;-2.598;2022-11-27T13:53:07;15.40;99.90
56256;DHT22;57229;51.432;-2.598;2022-11-27T13:55:37;15.40;99.90
56256;DHT22;57229;51.432;-2.598;2022-11-27T13:58:05;15.40;99.90
56256;DHT22;57229;51.432;-2.598;2022-11-27T14:00:39;15.40;99.90
56256;DHT22;57229;51.432;-2.598;2022-11-27T14:03:07;15.40;99.90
56256;DHT22;57229;51.432;-2.598;2022-11-27T14:05:42;15.40;99.90
56256;DHT22;57229;51.432;-2.598;2022-11-27T14:08:22;15.30;99.90
56256;DHT22;57229;51.432;-2.598;2022-11-27T14:11:01;15.30;99.90
56256;DHT22;57229;51.432;-2.598;2022-11-27T14:13:38;15.30;99.90
56256;DHT22;57229;51.432;-2.598;2022-11-27T14:16:34;15.30;99.90
56256;DHT22;57229;51.432;-2.598;2022-11-27T14:19:03;15.30;99.90
56256;DHT22;57229;51.432;-2.598;2022-11-27T14:21:40;15.20;99.90
56256;DHT22;57229;51.432;-2.598;2022-11-27T14:26:56;15.20;99.90
56256;DHT22;57229;51.432;-2.598;2022-11-27T14:29:23;15.20;99.90
56256;DHT22;57229;51.432;-2.598;2022-11-27T14:32:01;15.10;99.90
56256;DHT22;57229;51.432;-2.598;2022-11-27T14:34:31;15.10;99.90
56256;DHT22;57229;51.432;-2.598;2022-11-27T14:36:58;15.10;99.90
56256;DHT22;57229;51.432;-2.598;2022-11-27T14:39:31;15.10;99.90
56256;DHT22;57229;51.432;-2.598;2022-11-27T14:42:00;15.10;99.90
56256;DHT22;57229;51.432;-2.598;2022-11-27T14:44:27;15.00;99.90
56256;DHT22;57229;51.432;-2.598;2022-11-27T14:46:54;15.00;99.90
56256;DHT22;57229;51.432;-2.598;2022-11-27T14:49:24;15.00;99.90
56256;DHT22;57229;51.432;-2.598;2022-11-27T14:51:50;15.00;99.90
56256;DHT22;57229;51.432;-2.598;2022-11-27T14:54:24;15.00;99.90
56256;DHT22;57229;51.432;-2.598;2022-11-27T14:56:52;15.00;99.90
56256;DHT22;57229;51.432;-2.598;2022-11-27T14:59:22;14.90;99.90
56256;DHT22;57229;51.432;-2.598;2022-11-27T15:05:02;14.90;99.90
56256;DHT22;57229;51.432;-2.598;2022-11-27T15:07:28;14.90;99.90
56256;DHT22;57229;51.432;-2.598;2022-11-27T15:09:57;14.90;99.90
56256;DHT22;57229;51.432;-2.598;2022-11-27T15:12:27;14.90;99.90
56256;DHT22;57229;51.432;-2.598;2022-11-27T15:14:59;14.90;99.90
56256;DHT22;57229;51.432;-2.598;2022-11-27T15:17:33;14.80;99.90
56256;DHT22;57229;51.432;-2.598;2022-11-27T15:20:01;14.80;99.90
56256;DHT22;57229;51.432;-2.598;2022-11-27T15:22:28;14.80;99.90
56256;DHT22;57229;51.432;-2.598;2022-11-27T15:25:03;14.80;99.90
56256;DHT22;57229;51.432;-2.598;2022-11-27T15:27:31;14.80;99.90
56256;DHT22;57229;51.432;-2.598;2022-11-27T15:32:47;14.70;99.90
56256;DHT22;57229;51.432;-2.598;2022-11-27T15:37:46;14.70;99.90
56256;DHT22;57229;51.432;-2.598;2022-11-27T15:42:47;14.70;99.90
56256;DHT22;57229;51.432;-2.598;2022-11-27T15:45:13;14.70;99.90
56256;DHT22;57229;51.432;-2.598;2022-11-27T15:47:38;14.70;99.90
56256;DHT22;57229;51.432;-2.598;2022-11-27T15:50:06;14.70;99.90
56256;DHT22;57229;51.432;-2.598;2022-11-27T15:52:32;14.70;99.90
56256;DHT22;57229;51.432;-2.598;2022-11-27T15:54:58;14.60;99.90
56256;DHT22;57229;51.432;-2.598;2022-11-27T15:57:24;14.60;99.90
56256;DHT22;57229;51.432;-2.598;2022-11-27T15:59:50;14.60;99.90
56256;DHT22;57229;51.432;-2.598;2022-11-27T16:02:16;14.60;99.90
56256;DHT22;57229;51.432;-2.598;2022-11-27T16:04:42;14.60;99.90
56256;DHT22;57229;51.432;-2.598;2022-11-27T16:07:08;14.50;99.90
56256;DHT22;57229;51.432;-2.598;2022-11-27T16:09:34;14.60;99.90
56256;DHT22;57229;51.432;-2.598;2022-11-27T16:12:00;14.50;99.90
56256;DHT22;57229;51.432;-2.598;2022-11-27T16:14:26;14.50;99.90
56256;DHT22;57229;51.432;-2.598;2022-11-27T16:16:52;14.50;99.90
56256;DHT22;57229;51.432;-2.598;2022-11-27T16:19:18;14.50;99.90
56256;DHT22;57229;51.432;-2.598;2022-11-27T16:21:44;14.50;99.90
56256;DHT22;57229;51.432;-2.598;2022-11-27T16:24:13;14.50;99.90
56256;DHT22;57229;51.432;-2.598;2022-11-27T16:26:39;14.50;99.90
56256;DHT22;57229;51.432;-2.598;2022-11-27T16:29:06;14.50;99.90
56256;DHT22;57229;51.432;-2.598;2022-11-27T16:31:32;14.50;99.90
56256;DHT22;57229;51.432;-2.598;2022-11-27T16:33:58;14.40;99.90
56256;DHT22;57229;51.432;-2.598;2022-11-27T16:36:25;14.40;99.90
56256;DHT22;57229;51.432;-2.598;2022-11-27T16:38:52;14.40;99.90
56256;DHT22;57229;51.432;-2.598;2022-11-27T16:41:20;14.40;99.90
56256;DHT22;57229;51.432;-2.598;2022-11-27T16:43:52;14.40;99.90
56256;DHT22;57229;51.432;-2.598;2022-11-27T16:46:24;14.40;99.90
56256;DHT22;57229;51.432;-2.598;2022-11-27T16:48:53;14.50;99.90
56256;DHT22;57229;51.432;-2.598;2022-11-27T16:51:24;14.50;99.90
56256;DHT22;57229;51.432;-2.598;2022-11-27T16:53:54;14.50;99.90
56256;DHT22;57229;51.432;-2.598;2022-11-27T16:56:25;14.60;99.90
56256;DHT22;57229;51.432;-2.598;2022-11-27T16:58:52;14.70;99.90
56256;DHT22;57229;51.432;-2.598;2022-11-27T17:01:24;14.70;99.90
56256;DHT22;57229;51.432;-2.598;2022-11-27T17:03:54;14.80;99.90
56256;DHT22;57229;51.432;-2.598;2022-11-27T17:06:26;14.90;99.90
56256;DHT22;57229;51.432;-2.598;2022-11-27T17:08:55;14.90;99.90
56256;DHT22;57229;51.432;-2.598;2022-11-27T17:11:23;15.00;99.90
56256;DHT22;57229;51.432;-2.598;2022-11-27T17:13:50;15.00;99.90
56256;DHT22;57229;51.432;-2.598;2022-11-27T17:16:17;15.10;99.90
56256;DHT22;57229;51.432;-2.598;2022-11-27T17:18:44;15.10;99.90
56256;DHT22;57229;51.432;-2.598;2022-11-27T17:21:18;15.10;99.90
56256;DHT22;57229;51.432;-2.598;2022-11-27T17:23:50;15.10;99.90
56256;DHT22;57229;51.432;-2.598;2022-11-27T17:26:18;15.20;99.90
56256;DHT22;57229;51.432;-2.598;2022-11-27T17:28:45;15.20;99.90
56256;DHT22;57229;51.432;-2.598;2022-11-27T17:31:16;15.20;99.90
56256;DHT22;57229;51.432;-2.598;2022-11-27T17:33:43;15.10;99.90
56256;DHT22;57229;51.432;-2.598;2022-11-27T17:36:12;15.20;99.90
56256;DHT22;57229;51.432;-2.598;2022-11-27T17:38:40;15.20;99.90
56256;DHT22;57229;51.432;-2.598;2022-11-27T17:41:11;15.10;99.90
56256;DHT22;57229;51.432;-2.598;2022-11-27T17:43:38;15.20;99.90
56256;DHT22;57229;51.432;-2.598;2022-11-27T17:46:10;15.10;99.90
56256;DHT22;57229;51.432;-2.598;2022-11-27T17:48:36;15.10;99.90
56256;DHT22;57229;51.432;-2.598;2022-11-27T17:51:03;15.10;99.90
56256;DHT22;57229;51.432;-2.598;2022-11-27T17:53:37;15.10;99.90
56256;DHT22;57229;51.432;-2.598;2022-11-27T17:56:12;15.10;99.90